This is the latest recevied weather packets stored in our database for station/object LRBS. If no packets are shown the sender has not sent any weather packets the latest 1 day(s).
| Time | Temp. | Humidity | Pressure | Rain* | Wind** | Luminosity | Snow |
|---|---|---|---|---|---|---|---|
| 1777980825 | 22.78° C | 41% | 1015 hPa | - | 2.68 m/s, 230° | - | - |
| 1777979894 | 22.78° C | 38% | 1015 hPa | - | 3.13 m/s, 210° | - | - |
| 1777978994 | 22.78° C | 38% | 1015 hPa | - | 3.13 m/s, 210° | - | - |
| 1777978095 | 22.78° C | 44% | 1015 hPa | - | 3.13 m/s, 220° | - | - |
| 1777977196 | 22.78° C | 44% | 1015 hPa | - | 3.13 m/s, 220° | - | - |
| 1777974495 | 22.22° C | 44% | 1015 hPa | - | 2.68 m/s, 170° | - | - |
| 1777973594 | 22.22° C | 44% | 1015 hPa | - | 2.68 m/s, 170° | - | - |
| 1777970894 | 21.11° C | 46% | 1016 hPa | - | 2.24 m/s, 230° | - | - |
| 1777969995 | 21.11° C | 46% | 1016 hPa | - | 2.24 m/s, 230° | - | - |
| 1777954694 | 10° C | 88% | 1015 hPa | - | 0 m/s | - | - |
| 1777953793 | 10° C | 88% | 1015 hPa | - | 0 m/s | - | - |
| 1777949294 | 7.78° C | 93% | 1015 hPa | - | 0 m/s | - | - |
| 1777948394 | 7.78° C | 93% | 1015 hPa | - | 0 m/s | - | - |
| 1777947494 | 7.78° C | 93% | 1015 hPa | - | 1.34 m/s, 310° | - | - |
| 1777946594 | 7.78° C | 93% | 1015 hPa | - | 1.34 m/s, 310° | - | - |
| 1777945694 | 7.22° C | 93% | 1015 hPa | - | 1.34 m/s, 80° | - | - |
| 1777944794 | 7.22° C | 93% | 1015 hPa | - | 1.34 m/s, 80° | - | - |
| 1777943894 | 7.78° C | 87% | 1015 hPa | - | 0.89 m/s, 40° | - | - |
| 1777942995 | 7.78° C | 87% | 1015 hPa | - | 0.89 m/s, 40° | - | - |
| 1777942094 | 8.89° C | 87% | 1015 hPa | - | 0.89 m/s, 10° | - | - |
| 1777941194 | 8.89° C | 87% | 1015 hPa | - | 0.89 m/s, 10° | - | - |
| 1777940294 | 8.89° C | 87% | 1015 hPa | - | 0.89 m/s, 40° | - | - |
| 1777939394 | 8.89° C | 87% | 1015 hPa | - | 0.89 m/s, 40° | - | - |
| 1777938494 | 10° C | 88% | 1015 hPa | - | 0.45 m/s, 110° | - | - |
| 1777937594 | 10° C | 88% | 1015 hPa | - | 0.45 m/s, 110° | - | - |
* Rain since midnight (hover to see other rain measurements)
** Current wind speed in m/s (hover to see current wind gust speed)